Terminal Aerodrome Forecast
Issued by NWS

Home | Current Version | Previous Version | Text Only | Print | Product List | Glossary On
Versions: 1 2 3 4 5 6 7 8 9 10 11 12 13 14 15 16 17 18 19 20 21 22 23 24 25 26 27 28 29 30
000
FTUS45 KGJT 041130
TAFEGE
TAF
KEGE 041130Z 0412/0512 VRB03KT P6SM VCSH SCT090 BKN150
     FM041600 VRB04KT P6SM FEW090 SCT150
     FM041900 25006KT P6SM SCT090 BKN150
     FM042100 23010G17KT P6SM VCTS BKN090CB
     FM050200 21005KT P6SM VCTS BKN090CB
     FM050600 VRB04KT P6SM VCSH BKN090
      AMD LTD TO CLD VIS AND WIND TIL 041300=

USA.gov is the U.S. government's official web portal to all federal, state and local government web resources and services.